createdAt,value
2023-04-06T00:01:36.237Z,4.84
2023-04-06T00:03:39.546Z,4.80
2023-04-06T00:05:42.547Z,4.77
2023-04-06T00:07:45.452Z,4.73
2023-04-06T00:09:48.313Z,4.68
2023-04-06T00:11:51.362Z,4.66
2023-04-06T00:13:54.520Z,4.70
2023-04-06T00:15:57.517Z,4.71
2023-04-06T00:18:01.949Z,4.74
2023-04-06T00:20:05.409Z,4.69
2023-04-06T00:22:08.314Z,4.72
2023-04-06T00:24:11.487Z,4.76
2023-04-06T00:26:14.345Z,4.74
2023-04-06T00:28:26.216Z,4.72
2023-04-06T00:30:29.279Z,4.72
2023-04-06T00:32:32.506Z,4.72
2023-04-06T00:34:36.867Z,4.66
2023-04-06T00:36:39.799Z,4.55
2023-04-06T00:38:42.766Z,4.52
2023-04-06T00:40:46.307Z,4.52
2023-04-06T00:42:49.425Z,4.51
2023-04-06T00:44:52.486Z,4.53
2023-04-06T00:46:55.488Z,4.46
2023-04-06T00:48:59.080Z,4.44
2023-04-06T00:51:03.913Z,4.41
2023-04-06T00:53:06.832Z,4.38
2023-04-06T00:55:10.446Z,4.38
2023-04-06T00:57:17.914Z,4.37
2023-04-06T00:59:22.276Z,4.37
2023-04-06T01:01:26.151Z,4.38
2023-04-06T01:03:31.534Z,4.37
2023-04-06T01:05:35.615Z,4.36
2023-04-06T01:07:40.040Z,4.34
2023-04-06T01:09:47.737Z,4.30
2023-04-06T01:11:57.881Z,4.26
2023-04-06T01:14:05.996Z,4.26
2023-04-06T01:16:23.792Z,4.26
2023-04-06T01:18:40.170Z,4.24
2023-04-06T01:20:53.275Z,4.21
2023-04-06T01:22:58.408Z,4.19
2023-04-06T01:25:01.478Z,4.15
2023-04-06T01:27:13.386Z,4.13
2023-04-06T01:29:42.063Z,4.10
2023-04-06T01:31:46.732Z,4.10
2023-04-06T01:33:49.803Z,4.12
2023-04-06T01:35:56.001Z,4.14
2023-04-06T01:38:01.235Z,4.15
2023-04-06T01:40:09.630Z,4.12
2023-04-06T01:42:23.469Z,4.02
2023-04-06T01:44:27.364Z,4.06
2023-04-06T01:46:41.619Z,4.10
2023-04-06T01:48:46.228Z,4.09
2023-04-06T01:50:55.836Z,4.09
2023-04-06T01:53:06.242Z,4.10
2023-04-06T01:55:10.438Z,4.09
2023-04-06T01:57:31.800Z,4.08
2023-04-06T01:59:44.727Z,4.04
2023-04-06T02:01:55.827Z,3.98
2023-04-06T02:04:00.805Z,3.93
2023-04-06T02:06:04.711Z,3.80
2023-04-06T02:08:13.197Z,3.74
2023-04-06T02:10:16.973Z,3.65
2023-04-06T02:12:21.199Z,3.69
2023-04-06T02:14:27.573Z,3.72
2023-04-06T02:16:34.363Z,3.72
2023-04-06T02:18:37.255Z,3.73
2023-04-06T02:20:39.265Z,3.78
2023-04-06T02:22:42.297Z,3.77
2023-04-06T02:24:47.465Z,3.79
2023-04-06T02:26:50.921Z,3.78
2023-04-06T02:28:53.993Z,3.74
2023-04-06T02:30:56.972Z,3.75
2023-04-06T02:33:04.539Z,3.76
2023-04-06T02:35:15.827Z,3.72
2023-04-06T02:37:21.463Z,3.67
2023-04-06T02:39:24.286Z,3.51
2023-04-06T02:41:28.928Z,3.51
2023-04-06T02:43:35.968Z,3.49
2023-04-06T02:45:48.553Z,3.44
2023-04-06T02:47:52.312Z,3.46
2023-04-06T02:49:55.523Z,3.49
2023-04-06T02:51:58.534Z,3.51
2023-04-06T02:54:05.918Z,3.51
2023-04-06T02:56:09.361Z,3.49
2023-04-06T02:58:26.883Z,3.54
2023-04-06T03:00:32.891Z,3.55
2023-04-06T03:02:36.194Z,3.56
2023-04-06T03:04:45.114Z,3.47
2023-04-06T03:06:58.803Z,3.43
2023-04-06T03:09:11.400Z,3.40
2023-04-06T03:11:17.900Z,3.37
2023-04-06T03:13:21.307Z,3.39
2023-04-06T03:15:28.971Z,3.41
2023-04-06T03:17:41.354Z,3.42
2023-04-06T03:19:49.452Z,3.41
2023-04-06T03:21:52.680Z,3.40
2023-04-06T03:23:57.388Z,3.39
2023-04-06T03:26:00.348Z,3.41
2023-04-06T03:28:03.780Z,3.39
2023-04-06T03:30:09.610Z,3.40
2023-04-06T03:32:14.034Z,3.35
2023-04-06T03:34:18.295Z,3.31
2023-04-06T03:36:21.439Z,3.30
2023-04-06T03:38:24.574Z,3.31
2023-04-06T03:40:27.660Z,3.31
2023-04-06T03:42:30.857Z,3.30
2023-04-06T03:44:39.725Z,3.26
2023-04-06T03:46:43.353Z,3.21
2023-04-06T03:48:50.729Z,3.21
2023-04-06T03:50:55.224Z,3.16
2023-04-06T03:52:58.398Z,3.19
2023-04-06T03:55:01.401Z,3.14
2023-04-06T03:57:04.696Z,3.09
2023-04-06T03:59:07.967Z,3.05
2023-04-06T04:01:11.273Z,3.03
2023-04-06T04:03:14.347Z,3.08
2023-04-06T04:05:20.445Z,3.08
2023-04-06T04:07:23.502Z,3.03
2023-04-06T04:09:29.929Z,2.94
2023-04-06T04:11:33.086Z,2.99
2023-04-06T04:13:37.612Z,2.99
2023-04-06T04:15:42.285Z,2.90
2023-04-06T04:17:47.818Z,2.92
2023-04-06T04:19:51.016Z,2.99
2023-04-06T04:21:55.574Z,3.06
2023-04-06T04:24:08.051Z,3.07
2023-04-06T04:26:12.749Z,3.05
2023-04-06T04:28:16.861Z,3.05
2023-04-06T04:30:21.125Z,3.05
2023-04-06T04:32:24.373Z,3.10
2023-04-06T04:34:27.629Z,3.10
2023-04-06T04:36:30.824Z,3.09
2023-04-06T04:38:37.681Z,3.10
2023-04-06T04:40:40.736Z,3.06
2023-04-06T04:42:46.022Z,3.02
2023-04-06T04:44:55.362Z,3.04
2023-04-06T04:47:09.438Z,3.09
2023-04-06T04:49:22.466Z,3.07
2023-04-06T04:51:27.393Z,3.10
2023-04-06T04:53:45.785Z,3.06
2023-04-06T04:56:02.177Z,3.09
2023-04-06T04:58:05.519Z,3.13
2023-04-06T05:00:22.642Z,3.16
2023-04-06T05:02:26.722Z,3.17
2023-04-06T05:04:48.997Z,3.19
2023-04-06T05:07:05.769Z,3.22
2023-04-06T05:09:11.116Z,3.23
2023-04-06T05:11:17.061Z,3.26
2023-04-06T05:13:25.348Z,3.25
2023-04-06T05:15:30.344Z,3.24
2023-04-06T05:17:39.925Z,3.25
2023-04-06T05:19:44.624Z,3.28
2023-04-06T05:21:49.713Z,3.26
2023-04-06T05:23:52.733Z,3.26
2023-04-06T05:25:57.357Z,3.27
2023-04-06T05:28:00.440Z,3.26
2023-04-06T05:30:16.972Z,3.24
2023-04-06T05:32:25.587Z,3.27
2023-04-06T05:34:29.468Z,3.24
2023-04-06T05:36:33.971Z,3.28
2023-04-06T05:38:41.998Z,3.28
2023-04-06T05:40:54.544Z,3.30
2023-04-06T05:43:09.518Z,3.33
2023-04-06T05:45:17.835Z,3.37
2023-04-06T05:47:24.964Z,3.42
2023-04-06T05:49:39.209Z,3.50
2023-04-06T05:51:47.332Z,3.52
2023-04-06T05:53:50.394Z,3.54
2023-04-06T05:55:53.346Z,3.57
2023-04-06T05:57:57.837Z,3.57
2023-04-06T06:00:02.340Z,3.63
2023-04-06T06:02:15.449Z,3.61
2023-04-06T06:04:22.012Z,3.63
2023-04-06T06:06:29.772Z,3.69
2023-04-06T06:08:44.914Z,3.71
2023-04-06T06:10:51.818Z,3.71
2023-04-06T06:12:57.994Z,3.75
2023-04-06T06:15:02.750Z,3.81
2023-04-06T06:17:08.471Z,3.91
2023-04-06T06:19:11.934Z,4.01
2023-04-06T06:21:15.783Z,4.06
2023-04-06T06:23:18.791Z,4.01
2023-04-06T06:25:22.417Z,4.07
2023-04-06T06:27:27.144Z,4.13
2023-04-06T06:29:30.295Z,4.19
2023-04-06T06:31:34.766Z,4.27
2023-04-06T06:33:37.649Z,4.32
2023-04-06T06:35:40.789Z,4.36
2023-04-06T06:37:43.745Z,4.39
2023-04-06T06:39:50.240Z,4.45
2023-04-06T06:41:55.347Z,4.53
2023-04-06T06:44:17.648Z,4.55
2023-04-06T06:46:20.838Z,4.62
2023-04-06T06:48:25.136Z,4.72
2023-04-06T06:50:28.166Z,4.78
2023-04-06T06:52:31.055Z,4.86
2023-04-06T06:54:33.987Z,4.96
2023-04-06T06:56:38.851Z,5.04
2023-04-06T06:58:42.383Z,5.04
2023-04-06T07:00:45.971Z,5.10
2023-04-06T07:02:49.152Z,5.20
2023-04-06T07:04:53.627Z,5.18
2023-04-06T07:06:56.831Z,5.24
2023-04-06T07:08:59.745Z,5.28
2023-04-06T07:11:02.892Z,5.18
2023-04-06T07:13:05.829Z,5.17
2023-04-06T07:15:10.204Z,5.26
2023-04-06T07:17:13.273Z,5.40
2023-04-06T07:19:16.298Z,5.51
2023-04-06T07:21:21.176Z,5.60
2023-04-06T07:23:24.128Z,5.70
2023-04-06T07:25:27.035Z,5.77
2023-04-06T07:27:30.005Z,5.81
2023-04-06T07:29:33.057Z,5.86
2023-04-06T07:31:36.953Z,6.00
2023-04-06T07:33:40.988Z,6.09
2023-04-06T07:35:44.560Z,6.18
2023-04-06T07:37:49.537Z,6.15
2023-04-06T07:39:52.544Z,6.20
2023-04-06T07:41:55.439Z,6.31
2023-04-06T07:43:58.652Z,6.36
2023-04-06T07:46:01.981Z,6.38
2023-04-06T07:48:05.158Z,6.47
2023-04-06T07:50:10.077Z,6.44
2023-04-06T07:52:13.860Z,6.39
2023-04-06T07:54:19.590Z,6.47
2023-04-06T07:56:22.891Z,6.56
2023-04-06T07:58:25.856Z,6.63
2023-04-06T08:00:28.771Z,6.53
2023-04-06T08:02:31.887Z,6.49
2023-04-06T08:04:34.998Z,6.55
2023-04-06T08:06:38.311Z,6.63
2023-04-06T08:08:41.223Z,6.70
2023-04-06T08:10:45.578Z,6.89
2023-04-06T08:12:48.532Z,6.99
2023-04-06T08:14:51.435Z,7.17
2023-04-06T08:16:54.508Z,7.24
2023-04-06T08:18:57.456Z,7.37
2023-04-06T08:21:00.447Z,7.39
2023-04-06T08:23:03.456Z,7.54
2023-04-06T08:25:07.192Z,7.56
2023-04-06T08:27:11.578Z,7.65
2023-04-06T08:29:14.523Z,7.75
2023-04-06T08:31:17.454Z,7.79
2023-04-06T08:33:23.677Z,7.94
2023-04-06T08:35:28.420Z,7.97
2023-04-06T08:37:31.618Z,8.11
2023-04-06T08:39:34.857Z,8.16
2023-04-06T08:41:39.879Z,8.23
2023-04-06T08:43:48.311Z,8.30
2023-04-06T08:45:51.758Z,8.29
2023-04-06T08:47:56.283Z,8.36
2023-04-06T08:50:01.226Z,8.29
2023-04-06T08:52:04.115Z,8.39
2023-04-06T08:54:07.293Z,8.54
2023-04-06T08:56:12.331Z,8.56
2023-04-06T08:58:24.143Z,8.72
2023-04-06T09:00:38.894Z,8.85
2023-04-06T09:02:45.668Z,8.98
2023-04-06T09:04:50.552Z,9.13
2023-04-06T09:06:53.386Z,9.23
2023-04-06T09:08:57.563Z,9.25
2023-04-06T09:11:00.477Z,9.45
2023-04-06T09:13:07.647Z,9.49
2023-04-06T09:15:21.575Z,9.64
2023-04-06T09:17:30.696Z,9.64
2023-04-06T09:19:33.791Z,9.70
2023-04-06T09:21:36.829Z,9.78
2023-04-06T09:23:40.575Z,9.91
2023-04-06T09:25:43.674Z,10.08
2023-04-06T09:27:46.572Z,10.24
2023-04-06T09:29:49.532Z,10.27
2023-04-06T09:31:52.603Z,10.38
2023-04-06T09:33:57.552Z,10.46
2023-04-06T09:36:00.417Z,10.52
2023-04-06T09:38:13.183Z,10.66
2023-04-06T09:40:18.354Z,10.63
2023-04-06T09:42:27.756Z,10.61
2023-04-06T09:44:32.444Z,10.75
2023-04-06T09:46:50.416Z,10.93
2023-04-06T09:49:02.060Z,11.11
2023-04-06T09:51:07.195Z,11.24
2023-04-06T09:53:10.600Z,11.39
2023-04-06T09:55:19.411Z,11.56
2023-04-06T09:57:27.848Z,11.71
2023-04-06T09:59:39.934Z,11.75
2023-04-06T10:01:43.686Z,11.70
2023-04-06T10:03:54.261Z,11.65
2023-04-06T10:06:02.023Z,11.74
2023-04-06T10:08:08.913Z,11.92
2023-04-06T10:10:13.575Z,12.14
2023-04-06T10:12:17.784Z,12.19
2023-04-06T10:14:20.743Z,12.30
2023-04-06T10:16:25.845Z,12.37
2023-04-06T10:18:29.372Z,12.45
2023-04-06T10:20:40.796Z,12.66
2023-04-06T10:22:51.779Z,12.70
2023-04-06T10:24:54.780Z,12.54
2023-04-06T10:27:01.268Z,12.60
2023-04-06T10:29:05.926Z,12.63
2023-04-06T10:31:08.864Z,12.57
2023-04-06T10:33:15.628Z,12.71
2023-04-06T10:35:18.630Z,12.74
2023-04-06T10:37:22.314Z,12.85
2023-04-06T10:39:28.853Z,12.96
2023-04-06T10:41:36.206Z,13.12
2023-04-06T10:43:41.133Z,13.16
2023-04-06T10:45:44.434Z,12.99
2023-04-06T10:47:47.625Z,12.99
2023-04-06T10:49:50.717Z,13.15
2023-04-06T10:51:55.646Z,13.23
2023-04-06T10:54:00.311Z,13.24
2023-04-06T10:56:06.184Z,13.15
2023-04-06T10:58:09.231Z,13.26
2023-04-06T11:00:14.529Z,13.46
2023-04-06T11:02:26.378Z,13.52
2023-04-06T11:04:29.540Z,13.54
2023-04-06T11:06:33.454Z,13.41
2023-04-06T11:08:38.019Z,13.55
2023-04-06T11:10:41.035Z,13.62
2023-04-06T11:12:45.346Z,13.87
2023-04-06T11:14:55.489Z,13.76
2023-04-06T11:16:58.529Z,13.76
2023-04-06T11:19:04.683Z,13.51
2023-04-06T11:21:07.747Z,13.39
2023-04-06T11:23:11.025Z,13.43
2023-04-06T11:25:14.736Z,13.35
2023-04-06T11:27:19.189Z,13.37
2023-04-06T11:29:24.483Z,13.41
2023-04-06T11:31:27.765Z,13.34
2023-04-06T11:33:31.404Z,13.38
2023-04-06T11:35:34.894Z,13.50
2023-04-06T11:37:39.166Z,13.72
2023-04-06T11:39:48.751Z,13.87
2023-04-06T11:41:52.356Z,14.07
2023-04-06T11:43:57.079Z,14.06
2023-04-06T11:46:05.008Z,14.16
2023-04-06T11:48:08.062Z,14.12
2023-04-06T11:50:13.101Z,13.93
2023-04-06T11:52:17.417Z,13.87
2023-04-06T11:54:30.984Z,13.82
2023-04-06T11:56:33.881Z,13.89
2023-04-06T11:58:36.858Z,13.93
2023-04-06T12:00:39.869Z,14.07
2023-04-06T12:02:48.254Z,14.05
2023-04-06T12:04:51.370Z,14.01
2023-04-06T12:06:54.380Z,14.16
2023-04-06T12:08:57.376Z,13.96
2023-04-06T12:11:00.743Z,14.10
2023-04-06T12:13:03.770Z,14.00
2023-04-06T12:15:08.037Z,14.03
2023-04-06T12:17:11.211Z,13.99
2023-04-06T12:19:16.062Z,14.00
2023-04-06T12:21:19.123Z,14.00
2023-04-06T12:23:22.032Z,13.91
2023-04-06T12:25:25.113Z,13.96
2023-04-06T12:27:28.049Z,13.90
2023-04-06T12:29:31.120Z,13.80
2023-04-06T12:31:34.485Z,13.89
2023-04-06T12:33:37.485Z,13.94
2023-04-06T12:35:41.820Z,14.14
2023-04-06T12:37:44.876Z,14.30
2023-04-06T12:39:47.829Z,14.41
2023-04-06T12:41:50.961Z,14.61
2023-04-06T12:43:54.128Z,14.77
2023-04-06T12:45:57.108Z,14.81
2023-04-06T12:48:00.610Z,14.75
2023-04-06T12:50:03.775Z,14.80
2023-04-06T12:52:09.460Z,14.89
2023-04-06T12:54:12.834Z,14.75
2023-04-06T12:56:17.898Z,14.65
2023-04-06T12:58:21.005Z,14.62
2023-04-06T13:00:24.350Z,14.70
2023-04-06T13:02:28.041Z,14.75
2023-04-06T13:04:30.992Z,14.87
2023-04-06T13:06:36.197Z,14.83
2023-04-06T13:08:41.640Z,14.84
2023-04-06T13:10:45.593Z,14.81
2023-04-06T13:12:48.571Z,14.77
2023-04-06T13:14:53.490Z,14.90
2023-04-06T13:16:56.535Z,14.87
2023-04-06T13:18:59.479Z,14.88
2023-04-06T13:21:02.424Z,14.77
2023-04-06T13:23:05.438Z,14.64
2023-04-06T13:25:10.318Z,14.58
2023-04-06T13:27:13.527Z,14.53
2023-04-06T13:29:16.491Z,14.65
2023-04-06T13:31:19.454Z,14.61
2023-04-06T13:33:22.412Z,14.58
2023-04-06T13:35:25.410Z,14.62
2023-04-06T13:37:28.365Z,14.58
2023-04-06T13:39:31.470Z,14.65
2023-04-06T13:41:35.734Z,14.51
2023-04-06T13:43:38.661Z,14.55
2023-04-06T13:45:41.829Z,14.50
2023-04-06T13:47:44.822Z,14.47
2023-04-06T13:49:47.764Z,14.36
2023-04-06T13:51:50.682Z,14.47
2023-04-06T13:53:54.594Z,14.68
2023-04-06T13:55:57.576Z,14.48
2023-04-06T13:58:01.747Z,14.49
2023-04-06T14:00:07.397Z,14.40
2023-04-06T14:02:12.257Z,14.27
2023-04-06T14:04:15.268Z,14.38
2023-04-06T14:08:23.709Z,14.64
2023-04-06T14:10:28.456Z,14.57
2023-04-06T14:12:32.664Z,14.57
2023-04-06T14:14:36.814Z,14.67
2023-04-06T14:16:39.720Z,14.53
2023-04-06T14:18:43.551Z,14.44
2023-04-06T14:20:46.338Z,14.44
2023-04-06T14:22:50.394Z,14.57
2023-04-06T14:24:53.237Z,14.42
2023-04-06T14:26:56.953Z,14.49
2023-04-06T14:29:00.980Z,14.47
2023-04-06T14:31:12.941Z,14.56
2023-04-06T14:33:16.338Z,14.44
2023-04-06T14:35:19.097Z,14.36
2023-04-06T14:37:23.138Z,14.43
2023-04-06T14:39:26.076Z,14.52
2023-04-06T14:41:28.857Z,14.59
2023-04-06T14:43:31.949Z,14.61
2023-04-06T14:45:37.631Z,14.69
2023-04-06T14:47:41.874Z,14.73
2023-04-06T14:49:44.736Z,14.57
2023-04-06T14:51:47.578Z,14.62
2023-04-06T14:53:50.549Z,14.64
2023-04-06T14:55:53.678Z,14.57
2023-04-06T14:57:56.528Z,14.60
2023-04-06T14:59:59.298Z,14.59
2023-04-06T15:02:04.014Z,14.58
2023-04-06T15:04:09.201Z,14.62
2023-04-06T15:06:15.969Z,14.53
2023-04-06T15:08:21.417Z,14.47
2023-04-06T15:10:24.325Z,14.47
2023-04-06T15:12:27.429Z,14.50
2023-04-06T15:14:30.445Z,14.44
2023-04-06T15:16:33.637Z,14.34
2023-04-06T15:18:37.050Z,14.40
2023-04-06T15:20:42.917Z,14.39
2023-04-06T15:22:46.715Z,14.37
2023-04-06T15:24:49.514Z,14.26
2023-04-06T15:26:52.474Z,14.17
2023-04-06T15:28:55.358Z,14.11
2023-04-06T15:30:58.441Z,14.07
2023-04-06T15:33:03.658Z,14.17
2023-04-06T15:35:11.533Z,14.22
2023-04-06T15:37:15.668Z,14.06
2023-04-06T15:39:18.454Z,13.99
2023-04-06T15:41:21.424Z,13.92
2023-04-06T15:43:24.186Z,13.93
2023-04-06T15:45:27.266Z,13.83
2023-04-06T15:47:30.321Z,13.70
2023-04-06T15:49:33.304Z,13.55
2023-04-06T15:51:36.478Z,13.54
2023-04-06T15:53:40.738Z,13.63
2023-04-06T15:55:43.569Z,13.66
2023-04-06T15:57:46.419Z,13.59
2023-04-06T15:59:49.345Z,13.50
2023-04-06T16:01:52.245Z,13.32
2023-04-06T16:03:55.174Z,13.37
2023-04-06T16:06:08.060Z,13.42
2023-04-06T16:08:12.661Z,13.40
2023-04-06T16:10:16.844Z,13.37
2023-04-06T16:12:20.029Z,13.23
2023-04-06T16:14:22.816Z,13.40
2023-04-06T16:16:25.681Z,13.33
2023-04-06T16:18:28.570Z,13.31
2023-04-06T16:20:33.282Z,13.39
2023-04-06T16:22:36.539Z,13.26
2023-04-06T16:24:39.400Z,13.14
2023-04-06T16:26:44.343Z,13.12
2023-04-06T16:28:47.404Z,13.24
2023-04-06T16:30:50.244Z,13.30
2023-04-06T16:32:53.123Z,13.28
2023-04-06T16:34:56.020Z,13.33
2023-04-06T16:36:58.911Z,13.32
2023-04-06T16:39:02.925Z,13.30
2023-04-06T16:41:05.943Z,13.28
2023-04-06T16:43:10.681Z,13.31
2023-04-06T16:45:13.374Z,13.11
2023-04-06T16:47:16.536Z,13.10
2023-04-06T16:49:19.398Z,13.20
2023-04-06T16:51:22.211Z,13.16
2023-04-06T16:53:25.040Z,13.09
2023-04-06T16:55:27.863Z,13.04
2023-04-06T16:57:30.685Z,13.01
2023-04-06T16:59:35.997Z,12.94
2023-04-06T17:01:39.001Z,12.88
2023-04-06T17:03:44.177Z,12.99
2023-04-06T17:05:47.024Z,12.83
2023-04-06T17:07:49.972Z,12.84
2023-04-06T17:09:52.771Z,12.96
2023-04-06T17:11:56.750Z,12.87
2023-04-06T17:13:59.604Z,12.72
2023-04-06T17:16:04.139Z,12.67
2023-04-06T17:18:07.341Z,12.55
2023-04-06T17:20:10.608Z,12.45
2023-04-06T17:22:13.466Z,12.35
2023-04-06T17:24:16.313Z,12.33
2023-04-06T17:26:19.185Z,12.40
2023-04-06T17:28:22.078Z,12.31
2023-04-06T17:30:26.294Z,12.26
2023-04-06T17:32:30.507Z,12.20
2023-04-06T17:34:33.331Z,12.22
2023-04-06T17:36:36.210Z,12.22
2023-04-06T17:38:43.295Z,12.29
2023-04-06T17:40:46.147Z,12.31
2023-04-06T17:42:48.972Z,12.27
2023-04-06T17:44:53.224Z,12.28
2023-04-06T17:46:56.514Z,12.20
2023-04-06T17:49:00.621Z,12.10
2023-04-06T17:51:03.814Z,12.05
2023-04-06T17:53:06.921Z,11.93
2023-04-06T17:55:10.179Z,11.96
2023-04-06T17:57:12.995Z,11.89
2023-04-06T17:59:16.051Z,11.78
2023-04-06T18:01:19.365Z,11.86
2023-04-06T18:03:22.305Z,11.97
2023-04-06T18:05:27.037Z,12.00
2023-04-06T18:07:30.268Z,11.87
2023-04-06T18:09:33.257Z,11.86
2023-04-06T18:11:36.377Z,11.80
2023-04-06T18:13:40.092Z,11.62
2023-04-06T18:15:43.357Z,11.58
2023-04-06T18:17:47.178Z,11.45
2023-04-06T18:19:50.056Z,11.49
2023-04-06T18:21:54.239Z,11.41
2023-04-06T18:23:57.046Z,11.20
2023-04-06T18:26:00.616Z,11.26
2023-04-06T18:28:03.556Z,11.07
2023-04-06T18:30:07.582Z,11.10
2023-04-06T18:32:10.526Z,11.07
2023-04-06T18:34:13.384Z,11.02
2023-04-06T18:36:16.307Z,10.86
2023-04-06T18:38:21.295Z,10.49
2023-04-06T18:40:35.485Z,10.46
2023-04-06T18:42:38.819Z,10.47
2023-04-06T18:44:41.695Z,10.46
2023-04-06T18:46:44.724Z,10.26
2023-04-06T18:48:47.754Z,10.20
2023-04-06T18:50:54.076Z,10.25
2023-04-06T18:52:57.064Z,10.36
2023-04-06T18:55:01.337Z,10.34
2023-04-06T18:57:04.826Z,10.41
2023-04-06T18:59:07.802Z,10.37
2023-04-06T19:01:10.756Z,10.27
2023-04-06T19:03:13.686Z,10.21
2023-04-06T19:05:16.834Z,10.15
2023-04-06T19:07:19.765Z,10.24
2023-04-06T19:09:22.574Z,10.29
2023-04-06T19:11:27.348Z,10.29
2023-04-06T19:13:30.168Z,10.33
2023-04-06T19:15:33.173Z,10.30
2023-04-06T19:17:37.873Z,10.39
2023-04-06T19:19:40.598Z,10.33
2023-04-06T19:21:43.436Z,10.37
2023-04-06T19:23:47.793Z,10.34
2023-04-06T19:25:52.375Z,10.35
2023-04-06T19:27:57.486Z,10.42
2023-04-06T19:30:00.645Z,10.39
2023-04-06T19:32:03.511Z,10.34
2023-04-06T19:34:06.887Z,10.35
2023-04-06T19:36:10.396Z,10.35
2023-04-06T19:38:13.205Z,10.30
2023-04-06T19:40:16.212Z,10.26
2023-04-06T19:42:21.437Z,10.21
2023-04-06T19:44:25.843Z,10.19
2023-04-06T19:46:29.046Z,10.16
2023-04-06T19:48:33.607Z,10.15
2023-04-06T19:50:36.545Z,10.12
2023-04-06T19:52:39.536Z,10.09
2023-04-06T19:54:42.752Z,10.05
2023-04-06T19:56:45.609Z,10.05
2023-04-06T19:58:48.362Z,10.02
2023-04-06T20:00:52.592Z,10.00
2023-04-06T20:02:55.677Z,9.98
2023-04-06T20:04:58.533Z,9.94
2023-04-06T20:07:01.416Z,9.85
2023-04-06T20:09:04.590Z,9.83
2023-04-06T20:11:08.418Z,9.76
2023-04-06T20:13:11.294Z,9.73
2023-04-06T20:15:14.052Z,9.69
2023-04-06T20:17:18.236Z,9.64
2023-04-06T20:19:21.052Z,9.67
2023-04-06T20:21:23.923Z,9.68
2023-04-06T20:23:27.107Z,9.64
2023-04-06T20:25:29.940Z,9.66
2023-04-06T20:27:32.778Z,9.70
2023-04-06T20:29:35.742Z,9.66
2023-04-06T20:31:38.630Z,9.66
2023-04-06T20:33:42.863Z,9.66
2023-04-06T20:35:45.742Z,9.59
2023-04-06T20:37:48.570Z,9.54
2023-04-06T20:39:51.617Z,9.51
2023-04-06T20:41:54.732Z,9.51
2023-04-06T20:43:58.124Z,9.52
2023-04-06T20:46:02.186Z,9.54
2023-04-06T20:48:05.379Z,9.56
2023-04-06T20:50:10.416Z,9.52
2023-04-06T20:52:13.541Z,9.51
2023-04-06T20:54:16.753Z,9.52
2023-04-06T20:56:20.110Z,9.54
2023-04-06T20:58:22.877Z,9.56
2023-04-06T21:00:26.016Z,9.57
2023-04-06T21:02:29.111Z,9.50
2023-04-06T21:04:32.190Z,9.39
2023-04-06T21:06:36.648Z,9.39
2023-04-06T21:08:39.910Z,9.36
2023-04-06T21:10:42.712Z,9.36
2023-04-06T21:12:45.605Z,9.34
2023-04-06T21:14:48.453Z,9.25
2023-04-06T21:16:51.846Z,9.22
2023-04-06T21:18:54.719Z,9.23
2023-04-06T21:20:57.506Z,9.29
2023-04-06T21:23:01.826Z,9.31
2023-04-06T21:25:05.233Z,9.25
2023-04-06T21:27:08.295Z,9.29
2023-04-06T21:29:11.026Z,9.26
2023-04-06T21:31:16.410Z,9.23
2023-04-06T21:33:19.443Z,9.19
2023-04-06T21:35:22.207Z,9.16
2023-04-06T21:37:25.010Z,9.07
2023-04-06T21:39:29.298Z,9.06
2023-04-06T21:41:32.709Z,9.07
2023-04-06T21:43:35.708Z,9.09
2023-04-06T21:45:40.245Z,9.09
2023-04-06T21:47:43.062Z,9.01
2023-04-06T21:49:45.863Z,9.02
2023-04-06T21:51:48.724Z,9.01
2023-04-06T21:53:53.210Z,9.05
2023-04-06T21:55:57.335Z,9.05
2023-04-06T21:58:00.191Z,8.99
2023-04-06T22:00:03.369Z,8.99
2023-04-06T22:02:06.208Z,9.02
2023-04-06T22:04:09.209Z,9.01
2023-04-06T22:06:12.229Z,9.04
2023-04-06T22:08:25.376Z,9.02
2023-04-06T22:10:33.160Z,9.05
2023-04-06T22:12:37.322Z,9.06
2023-04-06T22:14:40.371Z,9.05
2023-04-06T22:16:43.295Z,9.00
2023-04-06T22:18:46.654Z,8.98
2023-04-06T22:20:49.509Z,8.97
2023-04-06T22:22:52.337Z,9.00
2023-04-06T22:24:56.669Z,8.94
2023-04-06T22:26:59.485Z,8.95
2023-04-06T22:29:03.872Z,8.88
2023-04-06T22:31:06.811Z,8.93
2023-04-06T22:33:09.728Z,8.90
2023-04-06T22:35:12.544Z,8.85
2023-04-06T22:37:15.453Z,8.89
2023-04-06T22:39:18.303Z,8.82
2023-04-06T22:41:21.136Z,8.80
2023-04-06T22:43:23.930Z,8.85
2023-04-06T22:45:28.165Z,8.83
2023-04-06T22:47:31.012Z,8.80
2023-04-06T22:49:33.837Z,8.82
2023-04-06T22:51:36.624Z,8.83
2023-04-06T22:53:39.421Z,8.86
2023-04-06T22:55:42.282Z,8.87
2023-04-06T22:57:45.284Z,8.86
2023-04-06T22:59:48.083Z,8.84
2023-04-06T23:01:52.361Z,8.87
2023-04-06T23:03:55.234Z,8.84
2023-04-06T23:05:58.118Z,8.87
2023-04-06T23:08:00.933Z,8.89
2023-04-06T23:10:04.034Z,8.89
2023-04-06T23:12:07.216Z,8.83
2023-04-06T23:14:10.042Z,8.80
2023-04-06T23:16:12.879Z,8.82
2023-04-06T23:18:17.105Z,8.86
2023-04-06T23:20:20.393Z,8.85
2023-04-06T23:22:23.164Z,8.80
2023-04-06T23:24:27.474Z,8.80
2023-04-06T23:26:30.551Z,8.84
2023-04-06T23:28:33.345Z,8.82
2023-04-06T23:30:36.279Z,8.81
2023-04-06T23:32:39.212Z,8.80
2023-04-06T23:34:43.522Z,8.77
2023-04-06T23:36:46.316Z,8.79
2023-04-06T23:38:49.095Z,8.79
2023-04-06T23:40:51.999Z,8.74
2023-04-06T23:42:54.839Z,8.72
2023-04-06T23:44:57.680Z,8.63
2023-04-06T23:47:00.504Z,8.67
2023-04-06T23:49:03.339Z,8.65
2023-04-06T23:51:07.653Z,8.68
2023-04-06T23:53:10.483Z,8.70
2023-04-06T23:55:13.769Z,8.72
2023-04-06T23:57:16.579Z,8.69
2023-04-06T23:59:19.500Z,8.70
